Time;durP1;ratioP1;P1;durP2;ratioP2;P2;SDS_P1;SDS_P2;PMS_P1;PMS_P2;Temp;Humidity;BMP_temperature;BMP_pressure;BME280_temperature;BME280_humidity;BME280_pressure;Samples;Min_cycle;Max_cycle;Signal;HPM_P1;HPM_P2
2021/07/15 00:01:59;;;;;;;3.63;2.35;;;;;;;20.83;65.60;101128.66;5035236;28;20629;-88
2021/07/15 00:04:24;;;;;;;3.17;2.42;;;;;;;20.66;65.65;101130.34;5032980;28;20025;-88
2021/07/15 00:06:49;;;;;;;4.38;2.58;;;;;;;20.78;65.29;101130.97;5032935;28;20108;-87
2021/07/15 00:09:15;;;;;;;9.48;2.70;;;;;;;20.83;65.30;101131.31;5032748;28;20076;-87
2021/07/15 00:11:44;;;;;;;3.63;2.58;;;;;;;20.68;65.73;101141.72;5033310;28;20459;-88
2021/07/15 00:14:10;;;;;;;3.10;2.30;;;;;;;20.80;65.07;101136.97;5032603;28;20040;-87
2021/07/15 00:16:36;;;;;;;3.00;2.28;;;;;;;20.77;64.86;101146.16;5048515;28;20072;-88
2021/07/15 00:19:02;;;;;;;3.13;2.33;;;;;;;20.79;65.26;101137.97;5052821;28;20108;-87
2021/07/15 00:21:27;;;;;;;4.18;3.15;;;;;;;20.76;64.62;101136.44;5052371;28;20025;-88
2021/07/15 00:23:53;;;;;;;2.90;2.47;;;;;;;20.66;65.40;101133.03;5052192;28;20032;-88
2021/07/15 00:26:23;;;;;;;2.75;2.50;;;;;;;20.57;65.63;101133.91;5052385;28;20028;-87
2021/07/15 00:28:49;;;;;;;4.03;2.58;;;;;;;20.64;65.14;101134.19;5052204;28;20434;-88
2021/07/15 00:31:14;;;;;;;2.50;2.30;;;;;;;20.66;65.46;101134.84;5036590;28;20037;-87
2021/07/15 00:33:40;;;;;;;6.28;3.33;;;;;;;20.65;65.65;101135.84;5032425;28;20494;-88
2021/07/15 00:36:06;;;;;;;4.15;2.25;;;;;;;20.52;65.64;101134.34;5032414;28;20451;-87
2021/07/15 00:38:32;;;;;;;4.03;1.80;;;;;;;20.43;65.69;101140.59;5032312;28;20021;-87
2021/07/15 00:40:57;;;;;;;2.83;2.47;;;;;;;20.40;66.11;101135.56;5032231;28;20483;-88
2021/07/15 00:43:23;;;;;;;2.63;2.42;;;;;;;20.39;65.94;101136.56;5031953;28;20116;-88
2021/07/15 00:45:50;;;;;;;4.00;2.70;;;;;;;20.36;66.04;101144.88;5045706;28;20035;-87
2021/07/15 00:48:15;;;;;;;2.78;2.40;;;;;;;20.30;65.87;101143.63;5051909;28;20033;-87
2021/07/15 00:50:41;;;;;;;2.80;2.40;;;;;;;20.34;65.42;101138.81;5052057;28;20071;-88
2021/07/15 00:53:08;;;;;;;2.38;2.17;;;;;;;20.26;65.84;101141.41;5051998;28;20094;-87
2021/07/15 00:55:37;;;;;;;2.13;1.95;;;;;;;20.19;65.95;101136.66;5051852;28;20064;-87
2021/07/15 00:58:04;;;;;;;3.05;2.63;;;;;;;20.17;66.15;101137.81;5051650;28;20024;-87
2021/07/15 01:00:29;;;;;;;3.53;2.35;;;;;;;20.17;65.84;101133.31;5042435;28;20111;-88
2021/07/15 01:02:56;;;;;;;8.32;2.28;;;;;;;20.11;66.20;101133.06;5051644;28;20021;-88
2021/07/15 01:05:24;;;;;;;3.10;2.70;;;;;;;20.11;66.31;101133.91;5051683;28;20029;-88
2021/07/15 01:07:50;;;;;;;2.50;2.30;;;;;;;20.06;66.34;101122.84;5052423;28;20371;-88
2021/07/15 01:10:18;;;;;;;4.05;2.70;;;;;;;20.08;66.28;101123.53;5051651;28;20029;-87
2021/07/15 01:12:58;;;;;;;4.03;2.40;;;;;;;20.07;65.99;101124.53;5051423;28;20032;-87
2021/07/15 01:15:30;;;;;;;3.78;2.60;;;;;;;20.04;66.02;101127.47;5036558;28;20048;-88
2021/07/15 01:18:17;;;;;;;2.53;2.33;;;;;;;20.05;66.51;101125.69;5031624;28;20052;-87
2021/07/15 01:21:30;;;;;;;3.65;2.50;;;;;;;19.97;65.94;101121.09;5031500;28;20107;-87
2021/07/15 01:24:38;;;;;;;2.92;2.22;;;;;;;19.86;66.47;101118.59;5014749;28;20546;-88
2021/07/15 01:27:29;;;;;;;3.75;2.40;;;;;;;19.85;67.07;101127.59;5031518;28;20116;-88
2021/07/15 01:30:03;;;;;;;6.68;2.58;;;;;;;19.86;66.45;101122.09;5031579;28;20045;-87
2021/07/15 01:32:38;;;;;;;3.55;2.33;;;;;;;19.66;66.12;101121.31;5031502;28;20025;-87
2021/07/15 01:35:06;;;;;;;6.18;2.45;;;;;;;19.47;67.02;101119.56;5031443;28;20116;-87
2021/07/15 01:37:33;;;;;;;3.22;2.50;;;;;;;19.37;67.35;101132.91;5031385;28;20383;-87
2021/07/15 01:40:01;;;;;;;5.88;2.53;;;;;;;19.21;68.12;101130.84;5031365;28;20494;-87
2021/07/15 01:42:27;;;;;;;2.78;2.58;;;;;;;19.28;68.00;101140.91;5031558;28;20060;-87
2021/07/15 01:44:54;;;;;;;4.15;2.20;;;;;;;19.32;68.01;101137.81;5045836;28;20044;-87
2021/07/15 01:47:20;;;;;;;2.80;2.42;;;;;;;19.27;67.78;101145.38;5051191;28;20044;-87
2021/07/15 01:49:46;;;;;;;3.00;2.25;;;;;;;19.27;67.80;101153.38;5051264;28;20029;-87
2021/07/15 01:52:14;;;;;;;3.47;2.83;;;;;;;19.23;67.94;101146.66;5051320;28;20446;-87
2021/07/15 01:54:40;;;;;;;3.80;2.55;;;;;;;19.20;67.86;101144.28;5051515;28;20053;-87
2021/07/15 01:57:06;;;;;;;2.42;2.22;;;;;;;19.23;67.94;101146.66;5049827;28;20067;-87
2021/07/15 01:59:33;;;;;;;4.00;2.58;;;;;;;19.22;67.78;101150.31;5036731;28;20029;-87
2021/07/15 02:02:00;;;;;;;2.65;2.38;;;;;;;19.20;67.39;101152.28;5047627;28;20036;-87
2021/07/15 02:04:29;;;;;;;3.63;2.67;;;;;;;19.12;67.66;101153.00;5051088;28;20107;-87
2021/07/15 02:06:55;;;;;;;2.58;2.38;;;;;;;19.06;67.92;101153.56;5050922;28;20025;-87
2021/07/15 02:09:23;;;;;;;2.95;2.47;;;;;;;19.04;68.01;101163.50;5050970;28;20041;-87
2021/07/15 02:11:54;;;;;;;4.97;2.50;;;;;;;19.01;67.71;101159.28;5051075;28;20028;-87
2021/07/15 02:14:22;;;;;;;4.25;2.72;;;;;;;19.00;68.32;101156.78;5052699;28;20017;-87
2021/07/15 02:16:52;;;;;;;2.70;2.25;;;;;;;18.98;68.29;101151.59;5054824;28;20039;-87
2021/07/15 02:19:20;;;;;;;3.35;2.97;;;;;;;18.94;68.00;101154.69;5054696;28;20029;-86
2021/07/15 02:21:46;;;;;;;3.92;2.47;;;;;;;18.99;67.80;101153.25;5054623;28;20061;-87
2021/07/15 02:24:14;;;;;;;5.05;2.55;;;;;;;18.99;67.75;101155.94;5054724;28;20446;-87
2021/07/15 02:26:41;;;;;;;3.30;2.28;;;;;;;18.93;67.07;101161.81;5054714;28;20036;-87
2021/07/15 02:29:07;;;;;;;2.63;2.25;;;;;;;18.91;67.97;101152.28;5042779;28;20032;-87
2021/07/15 02:31:58;;;;;;;3.70;2.17;;;;;;;19.00;67.60;101154.13;5034172;28;20025;-88
2021/07/15 02:34:28;;;;;;;3.85;2.30;;;;;;;18.87;67.79;101159.72;5035855;28;20040;-87
2021/07/15 02:36:57;;;;;;;4.90;2.35;;;;;;;18.77;68.84;101169.50;5034714;28;20045;-87
2021/07/15 02:39:22;;;;;;;3.63;2.95;;;;;;;18.75;69.41;101161.63;5033355;28;20021;-86
2021/07/15 02:41:48;;;;;;;4.85;2.45;;;;;;;18.73;69.33;101168.09;5034489;28;20430;-86
2021/07/15 02:44:13;;;;;;;3.17;2.70;;;;;;;18.68;68.98;101162.31;5046547;28;20474;-86
2021/07/15 02:46:39;;;;;;;4.63;2.88;;;;;;;18.57;69.74;101161.47;5054104;28;20036;-86
2021/07/15 02:49:05;;;;;;;3.30;3.00;;;;;;;18.51;70.26;101156.72;5054303;28;20036;-87
2021/07/15 02:51:31;;;;;;;3.17;2.88;;;;;;;18.62;70.45;101156.59;5054332;28;20036;-87
2021/07/15 02:53:59;;;;;;;2.92;2.45;;;;;;;18.56;70.07;101149.19;5054201;28;20387;-87
2021/07/15 02:57:03;;;;;;;3.72;2.63;;;;;;;18.70;69.92;101145.28;5054103;28;20483;-87
2021/07/15 02:59:41;;;;;;;4.00;2.70;;;;;;;18.70;69.47;101152.38;5036834;28;20107;-87
2021/07/15 03:02:27;;;;;;;6.05;3.35;;;;;;;18.69;69.64;101150.72;5051614;28;20037;-87
2021/07/15 03:05:06;;;;;;;3.72;2.60;;;;;;;18.60;70.04;101150.59;5053913;28;20378;-87
2021/07/15 03:07:36;;;;;;;2.60;2.40;;;;;;;18.63;69.56;101163.59;5053981;28;20017;-89
2021/07/15 03:10:04;;;;;;;3.08;2.78;;;;;;;18.55;70.00;101154.63;5053865;28;20035;-89
2021/07/15 03:12:38;;;;;;;3.10;2.60;;;;;;;18.63;70.05;101166.25;5053880;28;20025;-89
2021/07/15 03:15:05;;;;;;;5.68;3.30;;;;;;;18.65;70.04;101159.97;5033770;28;20018;-89
2021/07/15 03:17:34;;;;;;;3.50;3.00;;;;;;;18.59;70.37;101156.88;5033779;28;20116;-89
2021/07/15 03:20:04;;;;;;;3.25;2.95;;;;;;;18.61;70.70;101154.06;5033826;28;20056;-90
2021/07/15 03:22:32;;;;;;;2.85;2.55;;;;;;;18.54;70.57;101145.81;5033808;28;20099;-89
2021/07/15 03:25:04;;;;;;;2.78;2.40;;;;;;;18.68;70.22;101154.34;5032579;28;20041;-89
2021/07/15 03:27:31;;;;;;;3.17;2.88;;;;;;;18.59;70.67;101156.88;5033983;28;20116;-86
2021/07/15 03:30:00;;;;;;;4.38;3.10;;;;;;;18.60;70.91;101157.69;5033286;28;20104;-87
2021/07/15 03:32:27;;;;;;;3.35;2.83;;;;;;;18.55;71.67;101157.28;5033677;28;20026;-87
2021/07/15 03:34:53;;;;;;;3.05;2.50;;;;;;;18.60;71.36;101153.25;5033756;28;20033;-87
2021/07/15 03:37:19;;;;;;;3.25;2.92;;;;;;;18.70;70.46;101149.72;5033760;28;20017;-86
2021/07/15 03:39:47;;;;;;;3.28;2.70;;;;;;;18.73;70.24;101157.44;5033570;28;20097;-86
2021/07/15 03:42:14;;;;;;;3.40;3.10;;;;;;;18.63;70.54;101158.25;5033815;28;20025;-86
2021/07/15 03:44:39;;;;;;;3.08;2.78;;;;;;;18.65;70.78;101168.78;5047999;28;20048;-87
2021/07/15 03:47:05;;;;;;;6.03;3.05;;;;;;;18.63;70.83;101166.25;5033303;28;20475;-86
2021/07/15 03:49:31;;;;;;;7.97;3.58;;;;;;;18.64;70.80;101156.44;5032010;28;20383;-86
2021/07/15 03:51:57;;;;;;;5.32;3.03;;;;;;;18.66;70.71;101158.97;5033241;28;20032;-86
2021/07/15 03:54:23;;;;;;;3.72;2.97;;;;;;;18.57;70.79;101163.31;5033050;28;20033;-86
2021/07/15 03:56:50;;;;;;;4.55;2.85;;;;;;;18.57;70.70;101163.31;5033283;28;20113;-86
2021/07/15 03:59:17;;;;;;;4.05;2.80;;;;;;;18.56;70.81;101170.44;5049832;28;20029;-87
2021/07/15 04:01:43;;;;;;;4.15;2.92;;;;;;;18.53;70.77;101168.06;5052758;28;20062;-86
2021/07/15 04:04:11;;;;;;;2.45;2.25;;;;;;;18.50;70.48;101163.00;5053013;28;20023;-87
2021/07/15 04:06:38;;;;;;;5.93;3.00;;;;;;;18.47;70.78;101157.13;5052817;28;20469;-87
2021/07/15 04:09:07;;;;;;;2.85;2.63;;;;;;;18.49;70.26;101150.69;5052737;28;20032;-87
2021/07/15 04:11:33;;;;;;;2.92;2.42;;;;;;;18.48;70.58;101159.63;5052698;28;20051;-86
2021/07/15 04:14:01;;;;;;;4.78;3.40;;;;;;;18.46;70.64;101161.59;5035819;28;20057;-87
2021/07/15 04:16:47;;;;;;;3.65;2.92;;;;;;;18.47;70.96;101165.13;5032830;28;20373;-87
2021/07/15 04:19:13;;;;;;;4.03;2.90;;;;;;;18.43;71.25;101167.22;5032651;28;20040;-86
2021/07/15 04:21:40;;;;;;;3.90;3.20;;;;;;;18.43;71.09;101172.53;5032664;28;20025;-87
2021/07/15 04:24:07;;;;;;;3.80;3.40;;;;;;;18.48;71.38;101169.44;5032420;28;20026;-86
2021/07/15 04:26:33;;;;;;;5.30;2.88;;;;;;;18.45;71.12;101170.56;5032476;28;20036;-86
2021/07/15 04:29:00;;;;;;;4.22;2.95;;;;;;;18.48;71.50;101178.25;5032816;28;20032;-87
2021/07/15 04:31:28;;;;;;;3.28;2.97;;;;;;;18.47;71.39;101184.56;5032491;28;20037;-86
2021/07/15 04:33:56;;;;;;;3.20;2.90;;;;;;;18.47;71.65;101181.91;5031091;28;20387;-86
2021/07/15 04:36:22;;;;;;;3.00;2.70;;;;;;;18.55;70.97;101182.06;5032126;28;20029;-86
2021/07/15 04:38:48;;;;;;;6.40;3.42;;;;;;;18.55;71.14;101176.72;5032313;28;20048;-86
2021/07/15 04:41:14;;;;;;;3.45;3.15;;;;;;;18.62;71.40;101183.19;5032180;28;20124;-86
2021/07/15 04:43:40;;;;;;;3.53;3.20;;;;;;;18.61;71.42;101186.00;5049611;28;20063;-86
2021/07/15 04:46:07;;;;;;;4.68;3.20;;;;;;;18.68;71.71;101186.25;5052114;28;20044;-86
2021/07/15 04:48:32;;;;;;;3.53;3.22;;;;;;;18.75;71.36;101187.41;5051999;28;20036;-86
2021/07/15 04:50:59;;;;;;;3.92;3.15;;;;;;;18.72;71.69;101180.56;5051932;28;20021;-86
2021/07/15 04:53:26;;;;;;;8.88;3.78;;;;;;;18.74;71.40;101181.25;5051710;28;20467;-86
2021/07/15 04:55:56;;;;;;;5.43;3.55;;;;;;;18.76;71.25;101181.09;5052014;28;20029;-86
2021/07/15 04:58:23;;;;;;;4.50;3.75;;;;;;;18.78;71.63;101181.81;5034329;28;20028;-86
2021/07/15 05:00:49;;;;;;;4.28;3.33;;;;;;;18.76;71.27;101195.25;5030495;28;20137;-86
2021/07/15 05:03:30;;;;;;;3.58;3.28;;;;;;;18.68;71.90;101192.44;5031774;28;20101;-86
2021/07/15 05:05:56;;;;;;;4.68;3.75;;;;;;;18.65;72.14;101191.88;5031776;28;20029;-86
2021/07/15 05:08:21;;;;;;;5.43;3.90;;;;;;;18.65;72.05;101190.06;5032004;28;20136;-86
2021/07/15 05:10:46;;;;;;;3.75;3.45;;;;;;;18.71;72.08;101194.00;5032056;28;20025;-86
2021/07/15 05:13:12;;;;;;;4.05;3.25;;;;;;;18.71;71.94;101196.66;5049535;28;20114;-86
2021/07/15 05:15:37;;;;;;;4.47;3.55;;;;;;;18.74;72.06;101191.91;5051673;28;20024;-86
2021/07/15 05:18:03;;;;;;;4.00;3.70;;;;;;;18.75;72.32;101192.72;5050015;28;20032;-86
2021/07/15 05:20:28;;;;;;;4.60;3.70;;;;;;;18.77;72.35;101185.44;5051947;28;20482;-86
2021/07/15 05:22:54;;;;;;;3.65;3.20;;;;;;;18.78;72.71;101195.97;5051387;28;20021;-86
2021/07/15 05:25:19;;;;;;;5.70;3.40;;;;;;;18.82;72.58;101194.72;5044090;28;20017;-86
2021/07/15 05:27:44;;;;;;;4.80;4.05;;;;;;;18.87;73.20;101191.66;5046094;28;20502;-86
2021/07/15 05:30:11;;;;;;;5.18;4.43;;;;;;;18.89;73.96;101189.69;5051670;28;20035;-86
2021/07/15 05:32:36;;;;;;;4.45;4.05;;;;;;;18.96;74.60;101193.47;5040200;28;20408;-86
2021/07/15 05:35:02;;;;;;;7.50;4.50;;;;;;;19.01;75.43;101204.53;5050212;28;20116;-88
2021/07/15 05:37:27;;;;;;;5.57;4.63;;;;;;;19.01;76.53;101204.53;5051296;28;20021;-86
2021/07/15 05:39:53;;;;;;;9.13;5.03;;;;;;;19.03;78.01;101207.88;5051412;28;20384;-87
2021/07/15 05:42:18;;;;;;;5.25;4.75;;;;;;;19.21;76.92;101191.22;5051074;28;20029;-88
2021/07/15 05:44:43;;;;;;;7.00;4.70;;;;;;;19.35;76.21;101204.13;5043680;28;20029;-86
2021/07/15 05:47:09;;;;;;;7.03;4.43;;;;;;;19.41;76.06;101200.88;5031430;28;20032;-86
2021/07/15 05:49:36;;;;;;;6.10;4.63;;;;;;;19.48;76.06;101205.63;5035063;28;20021;-85
2021/07/15 05:52:05;;;;;;;6.38;5.78;;;;;;;19.41;76.41;101200.88;5035356;28;20505;-86
2021/07/15 05:54:30;;;;;;;5.22;4.70;;;;;;;19.52;76.83;101204.38;5035258;28;20045;-85
2021/07/15 05:56:56;;;;;;;5.88;4.68;;;;;;;19.62;76.20;101187.38;5035417;28;20082;-86
2021/07/15 05:59:21;;;;;;;8.32;5.05;;;;;;;19.67;75.90;101202.94;5041155;28;20029;-88
2021/07/15 06:01:47;;;;;;;4.45;3.78;;;;;;;19.74;75.85;101193.38;5057619;28;20060;-88
2021/07/15 06:04:12;;;;;;;9.95;4.65;;;;;;;19.67;76.72;101204.72;5057229;28;20029;-88
2021/07/15 06:06:37;;;;;;;6.35;3.95;;;;;;;19.85;75.41;101199.56;5055331;28;20029;-87
2021/07/15 06:09:03;;;;;;;5.88;3.97;;;;;;;19.92;75.21;101195.31;5054153;28;20021;-93
2021/07/15 06:11:28;;;;;;;6.18;3.97;;;;;;;19.90;75.04;101205.28;5051786;28;20025;-87
2021/07/15 06:13:54;;;;;;;4.57;3.53;;;;;;;19.77;75.22;101209.09;5043073;28;20021;-86
2021/07/15 06:16:20;;;;;;;5.05;3.63;;;;;;;19.89;75.38;101206.28;5049499;28;20037;-86
2021/07/15 06:18:46;;;;;;;6.93;4.05;;;;;;;20.70;73.70;101205.63;5034796;28;20052;-86
2021/07/15 06:21:11;;;;;;;6.78;4.07;;;;;;;21.54;68.82;101212.38;5034793;28;20072;-86
2021/07/15 06:23:36;;;;;;;6.18;2.92;;;;;;;22.33;66.07;101211.34;5034986;28;20056;-86
2021/07/15 06:26:04;;;;;;;4.75;2.88;;;;;;;23.06;63.42;101207.13;5034930;28;20030;-86
2021/07/15 06:28:30;;;;;;;4.70;3.08;;;;;;;23.69;61.57;101210.94;5039640;28;20029;-87
2021/07/15 06:30:55;;;;;;;3.30;2.15;;;;;;;24.19;58.59;101213.50;5054742;28;20386;-86
2021/07/15 06:33:20;;;;;;;4.55;2.30;;;;;;;24.79;56.82;101220.13;5046726;28;20115;-87
2021/07/15 06:35:50;;;;;;;2.50;2.13;;;;;;;25.61;54.47;101217.63;5034513;28;20018;-87
2021/07/15 06:38:16;;;;;;;2.63;1.95;;;;;;;26.23;52.56;101218.31;5052302;28;20056;-87
2021/07/15 06:40:43;;;;;;;4.05;1.88;;;;;;;26.73;50.91;101210.41;5054443;28;20491;-87
2021/07/15 06:43:09;;;;;;;2.47;2.28;;;;;;;27.21;49.46;101218.72;5053571;28;20021;-85
2021/07/15 06:45:34;;;;;;;1.67;1.30;;;;;;;28.07;47.81;101218.56;5054335;28;20029;-85
2021/07/15 06:47:59;;;;;;;4.22;1.92;;;;;;;28.45;46.21;101209.97;5054207;28;20021;-85
2021/07/15 06:50:25;;;;;;;3.05;1.58;;;;;;;28.73;44.45;101219.84;5054334;28;20025;-85
2021/07/15 06:52:50;;;;;;;7.03;1.60;;;;;;;29.07;44.93;101218.88;5052491;28;20053;-85
2021/07/15 06:55:15;;;;;;;4.40;1.73;;;;;;;28.25;45.74;101226.13;5054315;28;20067;-85
2021/07/15 06:57:41;;;;;;;4.05;1.50;;;;;;;29.41;44.14;101220.56;5054331;28;20029;-85
2021/07/15 07:00:13;;;;;;;3.28;1.40;;;;;;;30.50;42.15;101217.38;5037407;28;20037;-85
2021/07/15 07:02:40;;;;;;;1.52;1.42;;;;;;;30.81;40.36;101225.53;5053964;28;20025;-86
2021/07/15 07:05:07;;;;;;;1.27;1.05;;;;;;;31.51;40.13;101223.78;5054212;28;20051;-85
2021/07/15 07:07:32;;;;;;;5.47;1.15;;;;;;;31.57;39.62;101223.72;5054104;28;20028;-85
2021/07/15 07:09:58;;;;;;;2.33;1.17;;;;;;;32.25;39.55;101219.25;5054303;28;20021;-85
2021/07/15 07:12:23;;;;;;;2.08;1.13;;;;;;;32.40;38.59;101233.22;5053459;28;20550;-85
2021/07/15 07:14:48;;;;;;;2.38;1.30;;;;;;;32.99;37.87;101221.75;5053667;28;20403;-86
2021/07/15 07:17:14;;;;;;;1.40;0.88;;;;;;;33.71;37.14;101239.81;5054451;28;20021;-86
2021/07/15 07:19:39;;;;;;;1.65;1.20;;;;;;;34.37;35.32;101229.53;5053824;28;20025;-86
2021/07/15 07:22:05;;;;;;;7.53;1.02;;;;;;;34.75;34.74;101239.78;5046909;28;20033;-86
2021/07/15 07:24:30;;;;;;;5.75;0.93;;;;;;;34.82;33.27;101239.66;5042276;28;20029;-86
2021/07/15 07:26:55;;;;;;;0.93;0.73;;;;;;;34.90;32.80;101230.25;5040737;28;20021;-86
2021/07/15 07:29:21;;;;;;;2.60;1.55;;;;;;;35.32;34.11;101238.84;5051392;28;20502;-86
2021/07/15 07:31:46;;;;;;;1.67;1.10;;;;;;;34.58;33.37;101244.38;5051850;28;20025;-86
2021/07/15 07:34:11;;;;;;;2.00;1.08;;;;;;;34.83;32.95;101245.94;5044774;28;20108;-86
2021/07/15 07:36:37;;;;;;;1.95;0.98;;;;;;;34.51;33.91;101252.69;5034591;28;20515;-90
2021/07/15 07:39:04;;;;;;;1.67;0.80;;;;;;;35.26;33.57;101249.97;5045377;28;20029;-86
2021/07/15 07:41:29;;;;;;;1.58;0.85;;;;;;;34.93;33.11;101233.31;5033309;28;20067;-86
2021/07/15 07:43:55;;;;;;;1.70;0.93;;;;;;;34.92;33.76;101239.00;5036639;28;20029;-87
2021/07/15 07:46:20;;;;;;;3.28;0.75;;;;;;;34.29;33.65;101240.81;5037890;28;20056;-86
2021/07/15 07:48:45;;;;;;;2.65;1.20;;;;;;;35.17;33.86;101237.78;5040193;28;20026;-86
2021/07/15 07:51:11;;;;;;;4.88;1.25;;;;;;;35.16;32.99;101236.97;5035747;28;20113;-87
2021/07/15 07:53:36;;;;;;;4.20;1.10;;;;;;;36.13;32.47;101243.81;5033340;28;20068;-86
2021/07/15 07:56:02;;;;;;;5.55;1.70;;;;;;;35.85;31.64;101233.91;5041941;28;20025;-86
2021/07/15 07:58:27;;;;;;;6.97;1.45;;;;;;;35.27;33.62;101237.94;5052997;28;20032;-87
2021/07/15 08:00:52;;;;;;;4.78;1.10;;;;;;;34.83;33.46;101237.75;5052707;28;20379;-87
2021/07/15 08:03:18;;;;;;;2.78;1.00;;;;;;;34.37;33.72;101237.69;5052781;28;20075;-87
2021/07/15 08:05:47;;;;;;;2.15;0.80;;;;;;;34.53;33.26;101239.63;5044295;28;20032;-86
2021/07/15 08:08:14;;;;;;;3.35;0.80;;;;;;;33.28;35.48;101241.00;5032047;28;20100;-86
2021/07/15 08:10:39;;;;;;;3.25;1.08;;;;;;;32.38;36.94;101240.78;5041133;28;20442;-86
2021/07/15 08:13:05;;;;;;;4.18;1.17;;;;;;;32.53;37.35;101243.09;5051249;28;20033;-86
2021/07/15 08:15:31;;;;;;;2.90;0.95;;;;;;;31.85;37.72;101252.25;5052696;28;20032;-86
2021/07/15 08:17:57;;;;;;;5.95;1.30;;;;;;;31.18;39.22;101255.56;5037577;28;20029;-86
2021/07/15 08:20:22;;;;;;;6.07;1.10;;;;;;;30.31;40.63;101255.19;5041310;28;20033;-86
2021/07/15 08:22:48;;;;;;;2.90;1.10;;;;;;;30.15;40.98;101251.03;5035621;28;20025;-86
2021/07/15 08:25:14;;;;;;;11.05;1.30;;;;;;;29.96;42.48;101255.50;5033022;28;20017;-86
2021/07/15 08:27:40;;;;;;;2.30;1.00;;;;;;;29.65;42.84;101254.25;5042984;28;20439;-86
2021/07/15 08:30:08;;;;;;;4.28;1.35;;;;;;;29.07;43.25;101251.34;5048695;28;20033;-85
2021/07/15 08:32:34;;;;;;;5.10;1.10;;;;;;;29.36;42.29;101265.50;5032124;28;20079;-85
2021/07/15 08:35:00;;;;;;;2.78;1.70;;;;;;;29.08;43.25;101269.19;5032918;28;20037;-85
2021/07/15 08:37:25;;;;;;;5.28;1.25;;;;;;;28.64;44.21;101265.16;5051044;28;20029;-85
2021/07/15 08:39:50;;;;;;;4.30;1.10;;;;;;;28.74;44.63;101267.47;5045516;28;20029;-83
2021/07/15 08:42:17;;;;;;;3.70;1.80;;;;;;;28.41;44.54;101258.16;5045394;28;20021;-83
2021/07/15 08:44:44;;;;;;;5.10;2.15;;;;;;;29.02;43.95;101253.81;5047798;28;20091;-83
2021/07/15 08:47:13;;;;;;;2.28;1.40;;;;;;;29.06;44.09;101257.75;5043187;28;20021;-83
2021/07/15 08:49:39;;;;;;;2.42;1.00;;;;;;;28.51;45.39;101262.41;5032612;28;20025;-83
2021/07/15 08:52:04;;;;;;;4.93;1.45;;;;;;;28.63;44.76;101252.66;5037779;28;20030;-83
2021/07/15 08:54:37;;;;;;;4.75;0.93;;;;;;;28.54;44.65;101262.84;5051169;28;20024;-83
2021/07/15 08:57:03;;;;;;;3.10;1.20;;;;;;;28.70;44.89;101263.53;5051424;28;20025;-84
2021/07/15 08:59:29;;;;;;;3.10;1.27;;;;;;;28.86;44.58;101269.38;5049921;28;20112;-84
2021/07/15 09:01:56;;;;;;;1.83;1.00;;;;;;;28.48;45.09;101259.03;5034638;28;20044;-83
2021/07/15 09:04:23;;;;;;;5.03;1.30;;;;;;;28.46;44.54;101250.31;5037159;28;20032;-83
2021/07/15 09:06:49;;;;;;;1.67;1.08;;;;;;;28.29;45.18;101265.19;5033585;28;20108;-83
2021/07/15 09:11:50;;;;;;;1.70;1.20;;;;;;;27.12;47.27;101273.84;4509947;23;20054;-82
2021/07/15 09:14:22;;;;;;;2.67;1.20;;;;;;;27.52;47.02;101269.66;4970606;28;20489;-91
2021/07/15 09:16:48;;;;;;;4.07;1.38;;;;;;;27.38;46.82;101267.88;5109452;23;20023;-92
2021/07/15 09:19:15;;;;;;;3.30;1.60;;;;;;;27.11;47.99;101259.50;4971926;28;20045;-84
2021/07/15 09:21:40;;;;;;;2.20;1.05;;;;;;;27.37;47.21;101260.78;4972678;28;20073;-84
2021/07/15 09:24:31;;;;;;;2.72;1.10;;;;;;;28.49;45.06;101249.06;4973089;28;20027;-84
2021/07/15 09:26:58;;;;;;;2.53;1.30;;;;;;;28.93;44.11;101249.63;4970053;28;20026;-91
2021/07/15 09:29:23;;;;;;;3.45;1.10;;;;;;;29.73;43.64;101255.13;4971637;28;20047;-83
2021/07/15 09:31:54;;;;;;;5.75;1.42;;;;;;;29.13;43.40;101245.13;4971761;28;20031;-82
2021/07/15 09:34:22;;;;;;;2.35;1.10;;;;;;;29.16;44.09;101251.97;4972597;28;20034;-85
2021/07/15 09:36:48;;;;;;;3.17;1.17;;;;;;;28.49;44.94;101244.47;4972802;28;20486;-84
2021/07/15 09:39:21;;;;;;;3.10;1.40;;;;;;;28.27;45.62;101248.34;4972692;28;20106;-82
2021/07/15 09:42:05;;;;;;;1.52;1.30;;;;;;;28.28;45.49;101248.16;4971682;28;20047;-84
2021/07/15 09:44:35;;;;;;;2.25;1.33;;;;;;;28.21;46.31;101247.28;4972375;28;20031;-84
2021/07/15 09:47:01;;;;;;;1.30;1.17;;;;;;;28.34;45.93;101245.66;4972192;28;20114;-85
2021/07/15 09:49:31;;;;;;;6.45;1.65;;;;;;;28.22;46.12;101248.09;4972497;28;20034;-84
2021/07/15 09:51:58;;;;;;;3.33;1.27;;;;;;;28.22;46.36;101248.09;4972464;28;20031;-84
2021/07/15 09:54:23;;;;;;;6.53;1.50;;;;;;;28.08;46.76;101250.75;4971373;28;20363;-84
2021/07/15 09:56:49;;;;;;;1.88;1.35;;;;;;;27.94;46.77;101246.31;4971609;28;20034;-84
2021/07/15 09:59:15;;;;;;;3.30;1.42;;;;;;;27.87;46.57;101248.13;4964356;28;20034;-85
2021/07/15 10:01:56;;;;;;;5.55;1.50;;;;;;;27.79;47.03;101245.56;4971397;28;20107;-85
2021/07/15 10:04:24;;;;;;;2.22;1.45;;;;;;;27.26;48.05;101256.78;4969476;28;20482;-84
2021/07/15 10:06:51;;;;;;;2.17;1.30;;;;;;;27.41;47.64;101252.16;4969361;28;20031;-84
2021/07/15 10:09:21;;;;;;;5.78;1.98;;;;;;;27.27;48.50;101251.19;4972203;28;20110;-83
2021/07/15 10:11:47;;;;;;;3.42;1.45;;;;;;;27.26;48.84;101264.88;4972170;28;20023;-84
2021/07/15 10:14:14;;;;;;;3.10;1.60;;;;;;;26.69;49.50;101255.75;4971930;28;20042;-84
2021/07/15 10:16:42;;;;;;;2.25;1.60;;;;;;;26.83;49.76;101259.44;4972115;28;20061;-84
2021/07/15 10:19:16;;;;;;;4.65;1.48;;;;;;;27.00;49.81;101260.84;4972480;28;20084;-84
2021/07/15 10:21:41;;;;;;;2.97;1.73;;;;;;;27.09;49.92;101262.41;4972377;28;20031;-84
2021/07/15 10:24:21;;;;;;;5.13;1.95;;;;;;;26.93;49.72;101261.81;4972351;28;20049;-84
2021/07/15 10:26:48;;;;;;;3.53;1.85;;;;;;;27.55;48.94;101266.56;4972228;28;20023;-84
2021/07/15 10:29:15;;;;;;;3.08;1.80;;;;;;;27.06;49.21;101270.88;4972333;28;20058;-84
2021/07/15 10:31:41;;;;;;;4.60;1.90;;;;;;;27.03;48.89;101265.03;4972210;28;20381;-85
2021/07/15 10:34:07;;;;;;;4.10;1.48;;;;;;;27.26;49.19;101264.88;4972815;28;20495;-84
2021/07/15 10:36:34;;;;;;;3.90;1.90;;;;;;;26.93;49.52;101264.50;4975849;28;20460;-84
2021/07/15 10:39:01;;;;;;;3.13;1.90;;;;;;;27.13;48.82;101270.91;4976238;28;20027;-84
2021/07/15 10:41:27;;;;;;;2.08;1.50;;;;;;;27.42;47.93;101264.59;4974078;28;20382;-84
2021/07/15 10:43:53;;;;;;;1.75;1.40;;;;;;;27.55;47.92;101271.97;4975638;28;20027;-85
2021/07/15 10:46:18;;;;;;;3.03;1.30;;;;;;;27.43;47.85;101268.09;4975305;28;20053;-84
2021/07/15 10:48:46;;;;;;;2.55;1.65;;;;;;;27.65;47.48;101275.16;4975130;28;20562;-84
2021/07/15 10:51:12;;;;;;;9.23;2.00;;;;;;;27.44;47.24;101272.50;4975448;28;20029;-84
2021/07/15 10:53:40;;;;;;;6.63;1.63;;;;;;;27.53;46.81;101270.47;4975562;28;20101;-84
2021/07/15 10:56:06;;;;;;;3.65;1.40;;;;;;;28.06;45.54;101265.47;4975359;28;20033;-82
2021/07/15 10:58:51;;;;;;;1.75;1.23;;;;;;;27.92;45.54;101269.97;4975350;28;20023;-82
2021/07/15 11:04:12;;;;;;;3.60;1.48;;;;;;;29.03;44.91;101266.31;4975325;28;20038;-82
2021/07/15 11:06:47;;;;;;;4.60;1.55;;;;;;;30.14;43.43;101270.25;4975370;28;20025;-84
2021/07/15 11:09:30;;;;;;;2.63;1.50;;;;;;;30.76;41.42;101268.72;4975487;28;20118;-82
2021/07/15 11:11:57;;;;;;;3.17;1.50;;;;;;;30.62;39.92;101277.97;4975093;28;20039;-85
2021/07/15 11:14:46;;;;;;;3.20;1.75;;;;;;;30.18;40.74;101263.34;4975010;28;20049;-82
2021/07/15 11:17:20;;;;;;;3.75;1.77;;;;;;;30.21;39.86;101279.16;4955868;29;20031;-83
2021/07/15 11:19:54;;;;;;;3.90;1.60;;;;;;;30.63;40.47;101272.34;4955733;28;20027;-83
2021/07/15 11:22:34;;;;;;;3.10;1.60;;;;;;;30.86;40.27;101273.66;4970301;28;20027;-83
2021/07/15 11:25:11;;;;;;;3.45;1.70;;;;;;;30.90;40.39;101265.97;4974946;28;20508;-83
2021/07/15 11:27:45;;;;;;;3.65;1.45;;;;;;;30.75;40.16;101268.97;4974961;28;20316;-83
2021/07/15 11:30:26;;;;;;;1.60;1.38;;;;;;;30.51;40.77;101270.53;4973590;28;20022;-83
2021/07/15 11:32:53;;;;;;;3.05;1.50;;;;;;;29.52;42.65;101275.09;4974118;28;20030;-85
2021/07/15 11:35:24;;;;;;;2.83;1.45;;;;;;;29.52;42.75;101270.50;4974870;28;20035;-85